createdAt,value
2014-09-22T00:01:12.776Z,101228
2014-09-22T00:10:13.419Z,101207
2014-09-22T00:18:14.028Z,101199
2014-09-22T00:26:14.637Z,101196
2014-09-22T00:33:15.167Z,101207
2014-09-22T00:40:15.710Z,101201
2014-09-22T00:47:16.256Z,101178
2014-09-22T00:55:16.848Z,101175
2014-09-22T01:04:17.507Z,101195
2014-09-22T01:11:18.051Z,101175
2014-09-22T01:18:18.597Z,101178
2014-09-22T01:27:22.238Z,101164
2014-09-22T01:35:22.847Z,101161
2014-09-22T01:43:23.441Z,101161
2014-09-22T01:51:24.034Z,101155
2014-09-22T01:59:24.628Z,101158
2014-09-22T02:08:25.338Z,101146
2014-09-22T02:17:26.187Z,101126
2014-09-22T02:26:26.858Z,101114
2014-09-22T02:34:27.470Z,101102
2014-09-22T02:43:28.115Z,101094
2014-09-22T02:51:28.708Z,101079
2014-09-22T03:00:29.365Z,101071
2014-09-22T03:07:29.910Z,101082
2014-09-22T03:16:30.552Z,101085
2014-09-22T03:26:31.258Z,101076
2014-09-22T03:33:31.804Z,101082
2014-09-22T03:41:32.398Z,101070
2014-09-22T03:49:32.992Z,101062
2014-09-22T03:58:33.648Z,101062
2014-09-22T04:07:34.292Z,101056
2014-09-22T04:15:34.885Z,101094
2014-09-22T04:23:35.493Z,101091
2014-09-22T04:32:36.135Z,101064
2014-09-22T04:41:36.778Z,101032
2014-09-22T04:49:37.371Z,101038
2014-09-22T04:59:38.078Z,101038
2014-09-22T05:06:38.623Z,101047
2014-09-22T05:14:39.217Z,101032
2014-09-22T05:30:55.311Z,101029
2014-09-22T05:38:55.903Z,101017
2014-09-22T05:47:56.547Z,101038
2014-09-22T05:56:57.204Z,101026
2014-09-22T06:05:57.847Z,101032
2014-09-22T06:12:58.392Z,101064
2014-09-22T06:20:58.984Z,101076
2014-09-22T06:29:59.645Z,101076
2014-09-22T06:38:00.236Z,101104
2014-09-22T06:46:00.831Z,101113
2014-09-22T06:54:01.439Z,101119
2014-09-22T07:03:02.081Z,101137
2014-09-22T07:10:02.627Z,101125
2014-09-22T07:19:03.267Z,101142
2014-09-22T07:27:03.863Z,101157
2014-09-22T07:37:04.568Z,101171
2014-09-22T07:43:05.063Z,101185
2014-09-22T07:51:05.658Z,101203
2014-09-22T08:00:06.300Z,101218
2014-09-22T08:08:06.893Z,101215
2014-09-22T08:16:07.487Z,101229
2014-09-22T08:33:23.615Z,101262
2014-09-22T08:42:24.257Z,101288
2014-09-22T08:52:24.963Z,101285
2014-09-22T09:02:25.655Z,101279
2014-09-22T09:10:26.247Z,101279
2014-09-22T09:19:26.890Z,101288
2014-09-22T09:27:27.484Z,101282
2014-09-22T09:36:28.127Z,101276
2014-09-22T09:46:28.833Z,101279
2014-09-22T09:54:29.427Z,101267
2014-09-22T10:01:29.956Z,101291
2014-09-22T10:08:30.500Z,101291
2014-09-22T10:14:30.996Z,101302
2014-09-22T10:21:31.541Z,101297
2014-09-22T10:31:32.232Z,101306
2014-09-22T10:39:32.826Z,101300
2014-09-22T10:48:33.483Z,101311
2014-09-22T10:57:34.125Z,101306
2014-09-22T11:06:34.768Z,101310
2014-09-22T19:05:34.489Z,101702
2014-09-22T19:13:35.067Z,101699
2014-09-22T19:22:35.710Z,101709
2014-09-22T19:29:36.254Z,101697
2014-09-22T19:38:36.912Z,101700
2014-09-22T19:45:37.458Z,101703
2014-09-22T19:54:38.099Z,101706
2014-09-22T20:03:38.742Z,101724
2014-09-22T20:10:39.288Z,101733
2014-09-22T20:17:39.831Z,101741
2014-09-22T20:27:40.767Z,101753
2014-09-22T20:36:41.466Z,101765
2014-09-22T20:43:42.004Z,101765
2014-09-22T20:52:42.660Z,101776
2014-09-22T21:00:43.238Z,101785
2014-09-22T21:08:43.832Z,101782
2014-09-22T21:15:44.376Z,101794
2014-09-22T21:23:44.970Z,101796
2014-09-22T21:33:48.661Z,101799
2014-09-22T21:41:49.255Z,101802
2014-09-22T21:50:49.898Z,101811
2014-09-22T21:58:50.491Z,101811
2014-09-22T22:06:51.086Z,101796
2014-09-22T22:16:51.776Z,101808
2014-09-22T22:25:52.417Z,101802
2014-09-22T22:34:53.060Z,101805
2014-09-22T22:42:53.655Z,101796
2014-09-22T22:50:54.247Z,101805
2014-09-22T22:57:54.792Z,101808
2014-09-22T23:05:55.369Z,101830
2014-09-22T23:14:56.011Z,101833
2014-09-22T23:22:56.606Z,101822
2014-09-22T23:32:57.296Z,101822
2014-09-22T23:41:57.938Z,101813
2014-09-22T23:49:58.533Z,101813
2014-09-22T23:57:59.126Z,101824
